KMTH/MTH METAR and TAF weather

Enter ICAO airport designator
Station Type Date Time Source
KMTH METAR 2020/07/12 18:53 UTC NOAA

KMTH 121853Z AUTO 23008G17KT 10SM BKN030 BKN035 31/24 A2997 RMK AO2 SLP148 T03110239


Station Type Date Time Source
KMTH Decoded METAR 2020/07/12 18:53 UTC NOAA

MARATHON AIRPORT, FL, United States (KMTH) 24-44N 81-03W 2M
Jul 12, 2020 - 02:53 PM EDT / 2020.07.12 1853 UTC
Wind: from the SW (230 degrees) at 9 MPH (8 KT) gusting to 20 MPH (17 KT):0
Visibility: 10 mile(s):0
Sky conditions: mostly cloudy
Temperature: 88.0 F (31.1 C)
Heat index: 97.5 F (36.4 C):1
Dew Point: 75.0 F (23.9 C)
Relative Humidity: 65%
Pressure (altimeter): 29.97 in. Hg (1014 hPa)
ob: KMTH 121853Z AUTO 23008G17KT 10SM BKN030 BKN035 31/24 A2997 RMK AO2 SLP148 T03110239
cycle: 19

Station Type Date Time Source
KMTH TAF 2020/07/12 18:36 UTC NOAA

TAF KMTH 121735Z 1218/1318 23011G16KT P6SM VCSH SCT025
TEMPO 1219/1221 3SM SHRA BKN025
FM122200 23010KT P6SM SCT025

Example: see airport list